sensor_id;sensor_type;location;lat;lon;timestamp;pressure;altitude;pressure_sealevel;temperature;humidity
38612;BME280;24368;52.156;20.788;2023-04-05T00:02:50;101038.20;;;-2.02;99.86
38612;BME280;24368;52.156;20.788;2023-04-05T00:07:52;101033.16;;;-2.05;100.00
38612;BME280;24368;52.156;20.788;2023-04-05T00:12:54;101029.78;;;-2.11;100.00
38612;BME280;24368;52.156;20.788;2023-04-05T00:17:55;101026.34;;;-2.22;100.00
38612;BME280;24368;52.156;20.788;2023-04-05T00:22:56;101018.40;;;-2.31;100.00
38612;BME280;24368;52.156;20.788;2023-04-05T00:27:59;101016.28;;;-2.30;100.00
38612;BME280;24368;52.156;20.788;2023-04-05T00:33:00;101012.86;;;-2.35;100.00
38612;BME280;24368;52.156;20.788;2023-04-05T00:38:02;101007.50;;;-2.49;100.00
38612;BME280;24368;52.156;20.788;2023-04-05T00:43:03;100998.55;;;-2.50;100.00
38612;BME280;24368;52.156;20.788;2023-04-05T00:48:04;100997.46;;;-2.48;100.00
38612;BME280;24368;52.156;20.788;2023-04-05T00:53:06;100997.43;;;-2.62;100.00
38612;BME280;24368;52.156;20.788;2023-04-05T00:58:07;100993.04;;;-2.70;100.00
38612;BME280;24368;52.156;20.788;2023-04-05T01:03:10;100998.43;;;-2.76;100.00
38612;BME280;24368;52.156;20.788;2023-04-05T01:08:21;100990.36;;;-2.77;100.00
38612;BME280;24368;52.156;20.788;2023-04-05T01:13:28;100987.59;;;-2.77;100.00
38612;BME280;24368;52.156;20.788;2023-04-05T01:18:30;100986.25;;;-2.78;100.00
38612;BME280;24368;52.156;20.788;2023-04-05T01:34:53;100977.43;;;-2.77;100.00
38612;BME280;24368;52.156;20.788;2023-04-05T01:39:57;100975.45;;;-2.89;100.00
38612;BME280;24368;52.156;20.788;2023-04-05T01:44:59;100975.98;;;-2.94;100.00
38612;BME280;24368;52.156;20.788;2023-04-05T01:50:00;100981.27;;;-3.13;100.00
38612;BME280;24368;52.156;20.788;2023-04-05T01:55:01;100983.39;;;-3.31;100.00
38612;BME280;24368;52.156;20.788;2023-04-05T02:00:03;100981.31;;;-3.14;100.00
38612;BME280;24368;52.156;20.788;2023-04-05T02:05:05;100978.42;;;-3.22;100.00
38612;BME280;24368;52.156;20.788;2023-04-05T02:10:07;100985.52;;;-3.48;100.00
38612;BME280;24368;52.156;20.788;2023-04-05T02:15:09;100991.05;;;-3.65;100.00
38612;BME280;24368;52.156;20.788;2023-04-05T02:20:12;100990.55;;;-3.60;100.00
38612;BME280;24368;52.156;20.788;2023-04-05T02:25:14;100988.27;;;-3.43;100.00
38612;BME280;24368;52.156;20.788;2023-04-05T02:30:15;100988.11;;;-3.38;100.00
38612;BME280;24368;52.156;20.788;2023-04-05T02:35:16;100987.10;;;-3.28;100.00
38612;BME280;24368;52.156;20.788;2023-04-05T02:40:17;100987.27;;;-3.34;100.00
38612;BME280;24368;52.156;20.788;2023-04-05T02:45:18;100983.36;;;-3.56;100.00
38612;BME280;24368;52.156;20.788;2023-04-05T02:50:19;100985.67;;;-3.69;100.00
38612;BME280;24368;52.156;20.788;2023-04-05T02:55:21;100991.36;;;-3.92;100.00
38612;BME280;24368;52.156;20.788;2023-04-05T03:00:22;100992.37;;;-3.86;100.00
38612;BME280;24368;52.156;20.788;2023-04-05T03:05:23;100989.40;;;-3.89;100.00
38612;BME280;24368;52.156;20.788;2023-04-05T03:10:24;100988.40;;;-3.74;100.00
38612;BME280;24368;52.156;20.788;2023-04-05T03:15:31;100989.21;;;-3.84;100.00
38612;BME280;24368;52.156;20.788;2023-04-05T03:20:36;100993.23;;;-3.91;100.00
38612;BME280;24368;52.156;20.788;2023-04-05T03:25:41;100989.97;;;-3.92;100.00
38612;BME280;24368;52.156;20.788;2023-04-05T03:30:42;100991.00;;;-3.86;100.00
38612;BME280;24368;52.156;20.788;2023-04-05T03:35:43;100994.33;;;-3.88;100.00
38612;BME280;24368;52.156;20.788;2023-04-05T03:40:45;100998.77;;;-3.76;100.00
38612;BME280;24368;52.156;20.788;2023-04-05T03:45:46;100996.92;;;-3.54;100.00
38612;BME280;24368;52.156;20.788;2023-04-05T03:50:47;100993.61;;;-3.42;100.00
38612;BME280;24368;52.156;20.788;2023-04-05T03:55:49;100993.24;;;-3.32;100.00
38612;BME280;24368;52.156;20.788;2023-04-05T04:00:54;100991.69;;;-3.27;100.00
38612;BME280;24368;52.156;20.788;2023-04-05T04:05:56;100988.98;;;-3.23;100.00
38612;BME280;24368;52.156;20.788;2023-04-05T04:10:58;100990.77;;;-3.29;100.00
38612;BME280;24368;52.156;20.788;2023-04-05T04:15:59;100992.66;;;-3.30;100.00
38612;BME280;24368;52.156;20.788;2023-04-05T04:21:02;100995.16;;;-3.27;100.00
38612;BME280;24368;52.156;20.788;2023-04-05T04:26:06;100994.39;;;-3.30;100.00
38612;BME280;24368;52.156;20.788;2023-04-05T04:31:11;101000.05;;;-3.29;100.00
38612;BME280;24368;52.156;20.788;2023-04-05T04:36:13;101001.80;;;-3.19;100.00
38612;BME280;24368;52.156;20.788;2023-04-05T04:41:14;101003.73;;;-3.15;100.00
38612;BME280;24368;52.156;20.788;2023-04-05T04:46:17;101001.91;;;-3.07;100.00
38612;BME280;24368;52.156;20.788;2023-04-05T04:51:18;100999.67;;;-2.97;100.00
38612;BME280;24368;52.156;20.788;2023-04-05T04:56:20;101002.80;;;-2.88;100.00
38612;BME280;24368;52.156;20.788;2023-04-05T05:01:21;101002.42;;;-2.87;100.00
38612;BME280;24368;52.156;20.788;2023-04-05T05:06:25;100998.23;;;-2.70;100.00
38612;BME280;24368;52.156;20.788;2023-04-05T05:11:27;101004.37;;;-2.68;100.00
38612;BME280;24368;52.156;20.788;2023-04-05T05:16:29;101009.39;;;-2.84;100.00
38612;BME280;24368;52.156;20.788;2023-04-05T05:21:30;101007.33;;;-2.84;100.00
38612;BME280;24368;52.156;20.788;2023-04-05T05:26:31;101010.82;;;-2.75;100.00
38612;BME280;24368;52.156;20.788;2023-04-05T05:31:32;101017.02;;;-2.65;100.00
38612;BME280;24368;52.156;20.788;2023-04-05T05:36:33;101018.46;;;-2.66;100.00
38612;BME280;24368;52.156;20.788;2023-04-05T05:41:35;101026.36;;;-2.65;100.00
38612;BME280;24368;52.156;20.788;2023-04-05T05:46:38;101025.01;;;-2.56;100.00
38612;BME280;24368;52.156;20.788;2023-04-05T05:51:39;101024.00;;;-2.43;100.00
38612;BME280;24368;52.156;20.788;2023-04-05T05:56:41;101027.11;;;-2.38;100.00
38612;BME280;24368;52.156;20.788;2023-04-05T06:01:42;101029.40;;;-2.20;100.00
38612;BME280;24368;52.156;20.788;2023-04-05T06:06:46;101032.55;;;-2.22;100.00
38612;BME280;24368;52.156;20.788;2023-04-05T06:11:50;101035.30;;;-2.12;100.00
38612;BME280;24368;52.156;20.788;2023-04-05T06:16:52;101032.64;;;-2.09;100.00
38612;BME280;24368;52.156;20.788;2023-04-05T06:21:53;101036.27;;;-2.05;100.00
38612;BME280;24368;52.156;20.788;2023-04-05T06:26:54;101035.77;;;-1.96;100.00
38612;BME280;24368;52.156;20.788;2023-04-05T06:31:56;101037.10;;;-2.04;100.00
38612;BME280;24368;52.156;20.788;2023-04-05T06:36:57;101039.47;;;-1.80;100.00
38612;BME280;24368;52.156;20.788;2023-04-05T06:41:58;101043.91;;;-1.69;100.00
38612;BME280;24368;52.156;20.788;2023-04-05T06:46:59;101048.00;;;-1.64;100.00
38612;BME280;24368;52.156;20.788;2023-04-05T06:52:01;101050.77;;;-1.59;100.00
38612;BME280;24368;52.156;20.788;2023-04-05T06:57:02;101050.89;;;-1.53;100.00
38612;BME280;24368;52.156;20.788;2023-04-05T07:02:03;101046.27;;;-1.46;100.00
38612;BME280;24368;52.156;20.788;2023-04-05T07:07:05;101050.19;;;-1.40;100.00
38612;BME280;24368;52.156;20.788;2023-04-05T07:12:08;101050.52;;;-1.22;100.00
38612;BME280;24368;52.156;20.788;2023-04-05T07:17:10;101051.10;;;-1.03;100.00
38612;BME280;24368;52.156;20.788;2023-04-05T07:22:11;101052.17;;;-0.95;100.00
38612;BME280;24368;52.156;20.788;2023-04-05T07:27:12;101054.17;;;-0.93;100.00
38612;BME280;24368;52.156;20.788;2023-04-05T07:32:13;101060.61;;;-0.90;100.00
38612;BME280;24368;52.156;20.788;2023-04-05T07:37:14;101057.59;;;-0.84;100.00
38612;BME280;24368;52.156;20.788;2023-04-05T07:42:15;101060.92;;;-0.81;100.00
38612;BME280;24368;52.156;20.788;2023-04-05T07:47:18;101062.31;;;-0.73;100.00
38612;BME280;24368;52.156;20.788;2023-04-05T07:52:19;101069.33;;;-0.71;100.00
38612;BME280;24368;52.156;20.788;2023-04-05T07:57:21;101067.04;;;-0.66;100.00
38612;BME280;24368;52.156;20.788;2023-04-05T08:02:22;101070.13;;;-0.49;100.00
38612;BME280;24368;52.156;20.788;2023-04-05T08:07:23;101068.39;;;-0.21;100.00
38612;BME280;24368;52.156;20.788;2023-04-05T08:12:25;101066.05;;;-0.15;100.00
38612;BME280;24368;52.156;20.788;2023-04-05T08:17:27;101068.16;;;-0.19;100.00
38612;BME280;24368;52.156;20.788;2023-04-05T08:22:29;101076.87;;;-0.21;100.00
38612;BME280;24368;52.156;20.788;2023-04-05T08:27:30;101071.81;;;-0.05;100.00
38612;BME280;24368;52.156;20.788;2023-04-05T08:32:32;101067.73;;;0.02;99.17
38612;BME280;24368;52.156;20.788;2023-04-05T08:37:36;101065.96;;;0.02;96.92
38612;BME280;24368;52.156;20.788;2023-04-05T08:48:18;101065.49;;;0.35;91.11
38612;BME280;24368;52.156;20.788;2023-04-05T08:53:21;101067.73;;;0.47;90.35
38612;BME280;24368;52.156;20.788;2023-04-05T08:58:23;101064.00;;;0.67;91.77
38612;BME280;24368;52.156;20.788;2023-04-05T09:03:29;101065.30;;;0.76;90.06
38612;BME280;24368;52.156;20.788;2023-04-05T09:08:31;101064.19;;;0.78;90.41
38612;BME280;24368;52.156;20.788;2023-04-05T09:13:32;101061.13;;;0.73;88.66
38612;BME280;24368;52.156;20.788;2023-04-05T09:18:33;101063.34;;;0.70;88.21
38612;BME280;24368;52.156;20.788;2023-04-05T09:23:35;101067.52;;;0.59;88.19
38612;BME280;24368;52.156;20.788;2023-04-05T09:28:40;101063.73;;;0.54;90.65
38612;BME280;24368;52.156;20.788;2023-04-05T09:33:42;101062.33;;;0.66;91.44
38612;BME280;24368;52.156;20.788;2023-04-05T09:38:46;101065.86;;;0.71;91.77
38612;BME280;24368;52.156;20.788;2023-04-05T09:43:47;101066.96;;;0.70;91.63
38612;BME280;24368;52.156;20.788;2023-04-05T09:48:49;101065.52;;;0.79;90.76
38612;BME280;24368;52.156;20.788;2023-04-05T09:54:07;101059.66;;;1.10;89.40
38612;BME280;24368;52.156;20.788;2023-04-05T09:59:10;101059.04;;;1.22;85.81
38612;BME280;24368;52.156;20.788;2023-04-05T10:04:11;101055.48;;;1.17;84.16
38612;BME280;24368;52.156;20.788;2023-04-05T10:09:12;101060.10;;;1.11;80.94
38612;BME280;24368;52.156;20.788;2023-04-05T10:14:15;101061.20;;;1.20;82.99
38612;BME280;24368;52.156;20.788;2023-04-05T10:20:06;101055.38;;;1.23;82.99
38612;BME280;24368;52.156;20.788;2023-04-05T10:30:35;101055.26;;;1.11;78.94
38612;BME280;24368;52.156;20.788;2023-04-05T10:41:12;101052.73;;;1.16;76.65
38612;BME280;24368;52.156;20.788;2023-04-05T10:46:18;101052.34;;;1.17;75.54
38612;BME280;24368;52.156;20.788;2023-04-05T10:51:23;101051.70;;;1.13;74.09
38612;BME280;24368;52.156;20.788;2023-04-05T10:56:26;101054.89;;;1.21;73.37
38612;BME280;24368;52.156;20.788;2023-04-05T11:01:28;101046.68;;;1.27;71.62
38612;BME280;24368;52.156;20.788;2023-04-05T11:06:31;101046.43;;;1.25;70.82
38612;BME280;24368;52.156;20.788;2023-04-05T11:11:41;101045.21;;;1.42;71.22
38612;BME280;24368;52.156;20.788;2023-04-05T11:16:46;101040.86;;;1.65;70.69
38612;BME280;24368;52.156;20.788;2023-04-05T11:21:59;101033.54;;;1.92;69.84
38612;BME280;24368;52.156;20.788;2023-04-05T11:27:08;101034.54;;;3.08;67.40
38612;BME280;24368;52.156;20.788;2023-04-05T11:32:12;101034.60;;;4.46;64.66
38612;BME280;24368;52.156;20.788;2023-04-05T11:37:14;101034.65;;;4.16;62.08
38612;BME280;24368;52.156;20.788;2023-04-05T11:42:16;101032.36;;;3.39;60.54
38612;BME280;24368;52.156;20.788;2023-04-05T11:47:19;101033.00;;;3.16;60.45
38612;BME280;24368;52.156;20.788;2023-04-05T11:52:24;101030.11;;;3.06;62.11
38612;BME280;24368;52.156;20.788;2023-04-05T11:57:25;101032.31;;;3.23;63.25
38612;BME280;24368;52.156;20.788;2023-04-05T12:02:26;101038.80;;;3.31;60.32
38612;BME280;24368;52.156;20.788;2023-04-05T12:07:28;101036.02;;;6.62;51.74
38612;BME280;24368;52.156;20.788;2023-04-05T12:12:34;101026.64;;;9.33;43.97
38612;BME280;24368;52.156;20.788;2023-04-05T12:17:49;101025.63;;;8.94;44.10
38612;BME280;24368;52.156;20.788;2023-04-05T12:22:53;101021.47;;;8.20;44.24
38612;BME280;24368;52.156;20.788;2023-04-05T12:27:55;101018.38;;;8.70;42.57
38612;BME280;24368;52.156;20.788;2023-04-05T12:32:56;101013.63;;;9.25;41.16
38612;BME280;24368;52.156;20.788;2023-04-05T12:38:00;101005.60;;;10.04;39.41
38612;BME280;24368;52.156;20.788;2023-04-05T12:43:02;100997.06;;;10.62;37.24
38612;BME280;24368;52.156;20.788;2023-04-05T12:48:14;100997.34;;;11.94;35.00
38612;BME280;24368;52.156;20.788;2023-04-05T12:53:21;100994.30;;;11.94;34.45
38612;BME280;24368;52.156;20.788;2023-04-05T12:58:35;100998.05;;;11.79;34.21
38612;BME280;24368;52.156;20.788;2023-04-05T13:03:36;101003.20;;;7.09;41.50
38612;BME280;24368;52.156;20.788;2023-04-05T13:08:37;100999.98;;;6.00;43.21
38612;BME280;24368;52.156;20.788;2023-04-05T13:13:39;100998.08;;;5.98;44.66
38612;BME280;24368;52.156;20.788;2023-04-05T13:18:40;100998.84;;;5.31;46.22
38612;BME280;24368;52.156;20.788;2023-04-05T13:23:41;101002.52;;;6.22;45.09
38612;BME280;24368;52.156;20.788;2023-04-05T13:28:43;100993.44;;;7.45;42.54
38612;BME280;24368;52.156;20.788;2023-04-05T13:33:44;100993.85;;;7.15;43.10
38612;BME280;24368;52.156;20.788;2023-04-05T13:38:45;100989.16;;;5.75;46.59
38612;BME280;24368;52.156;20.788;2023-04-05T13:43:46;100996.57;;;5.31;49.25
38612;BME280;24368;52.156;20.788;2023-04-05T13:48:47;100996.66;;;5.06;50.14
38612;BME280;24368;52.156;20.788;2023-04-05T13:53:49;100997.72;;;4.69;52.12
38612;BME280;24368;52.156;20.788;2023-04-05T13:58:50;100992.83;;;4.64;52.60
38612;BME280;24368;52.156;20.788;2023-04-05T14:03:51;100992.64;;;5.01;51.52
38612;BME280;24368;52.156;20.788;2023-04-05T14:08:52;100992.18;;;6.19;48.69
38612;BME280;24368;52.156;20.788;2023-04-05T14:13:57;100991.24;;;5.75;49.21
38612;BME280;24368;52.156;20.788;2023-04-05T14:19:00;100995.98;;;5.17;50.52
38612;BME280;24368;52.156;20.788;2023-04-05T14:24:01;100994.82;;;4.79;50.71
38612;BME280;24368;52.156;20.788;2023-04-05T14:29:02;100995.23;;;4.56;52.23
38612;BME280;24368;52.156;20.788;2023-04-05T14:34:04;100999.76;;;4.46;53.18
38612;BME280;24368;52.156;20.788;2023-04-05T14:39:05;101000.14;;;4.37;52.55
38612;BME280;24368;52.156;20.788;2023-04-05T14:44:07;101000.70;;;4.12;52.92
38612;BME280;24368;52.156;20.788;2023-04-05T14:49:08;101001.30;;;3.94;54.72
38612;BME280;24368;52.156;20.788;2023-04-05T14:54:09;101001.31;;;3.86;54.84
38612;BME280;24368;52.156;20.788;2023-04-05T14:59:10;101002.63;;;3.67;54.33
38612;BME280;24368;52.156;20.788;2023-04-05T15:04:12;101000.41;;;3.58;55.21
38612;BME280;24368;52.156;20.788;2023-04-05T15:09:13;101003.09;;;3.62;56.48
38612;BME280;24368;52.156;20.788;2023-04-05T15:14:15;101007.55;;;3.66;57.41
38612;BME280;24368;52.156;20.788;2023-04-05T15:19:16;101009.61;;;3.67;57.54
38612;BME280;24368;52.156;20.788;2023-04-05T15:24:17;101016.02;;;3.59;58.61
38612;BME280;24368;52.156;20.788;2023-04-05T15:29:18;101019.67;;;3.51;58.15
38612;BME280;24368;52.156;20.788;2023-04-05T15:34:20;101021.58;;;3.45;57.65
38612;BME280;24368;52.156;20.788;2023-04-05T15:39:58;101024.78;;;3.46;57.25
38612;BME280;24368;52.156;20.788;2023-04-05T15:45:06;101029.98;;;3.47;58.11
38612;BME280;24368;52.156;20.788;2023-04-05T15:50:07;101031.08;;;3.46;59.31
38612;BME280;24368;52.156;20.788;2023-04-05T15:55:08;101028.52;;;3.45;59.99
38612;BME280;24368;52.156;20.788;2023-04-05T16:00:10;101031.66;;;3.42;59.42
38612;BME280;24368;52.156;20.788;2023-04-05T16:05:12;101029.87;;;3.34;59.01
38612;BME280;24368;52.156;20.788;2023-04-05T16:10:13;101033.20;;;3.31;59.10
38612;BME280;24368;52.156;20.788;2023-04-05T16:15:14;101026.46;;;3.27;59.60
38612;BME280;24368;52.156;20.788;2023-04-05T16:20:16;101021.74;;;3.21;59.64
38612;BME280;24368;52.156;20.788;2023-04-05T16:25:17;101020.98;;;3.17;61.26
38612;BME280;24368;52.156;20.788;2023-04-05T16:30:19;101026.84;;;3.15;61.77
38612;BME280;24368;52.156;20.788;2023-04-05T16:35:20;101024.76;;;3.12;61.43
38612;BME280;24368;52.156;20.788;2023-04-05T16:40:21;101027.17;;;3.09;61.98
38612;BME280;24368;52.156;20.788;2023-04-05T16:45:23;101029.50;;;3.05;62.27
38612;BME280;24368;52.156;20.788;2023-04-05T16:50:25;101025.37;;;3.01;62.40
38612;BME280;24368;52.156;20.788;2023-04-05T16:55:27;101033.86;;;2.96;61.50
38612;BME280;24368;52.156;20.788;2023-04-05T17:00:28;101032.08;;;2.88;61.99
38612;BME280;24368;52.156;20.788;2023-04-05T17:05:29;101035.77;;;2.81;61.93
38612;BME280;24368;52.156;20.788;2023-04-05T17:10:31;101036.45;;;2.78;62.35
38612;BME280;24368;52.156;20.788;2023-04-05T17:15:32;101041.98;;;2.76;63.03
38612;BME280;24368;52.156;20.788;2023-04-05T17:20:33;101045.16;;;2.72;63.44
38612;BME280;24368;52.156;20.788;2023-04-05T17:25:35;101045.70;;;2.68;64.67
38612;BME280;24368;52.156;20.788;2023-04-05T17:30:36;101053.86;;;2.65;65.63
38612;BME280;24368;52.156;20.788;2023-04-05T17:35:37;101055.60;;;2.62;66.34
38612;BME280;24368;52.156;20.788;2023-04-05T17:40:39;101056.98;;;2.59;66.02
38612;BME280;24368;52.156;20.788;2023-04-05T17:45:41;101063.91;;;2.57;65.74
38612;BME280;24368;52.156;20.788;2023-04-05T17:50:43;101068.14;;;2.56;66.59
38612;BME280;24368;52.156;20.788;2023-04-05T17:55:46;101077.20;;;2.56;66.68
38612;BME280;24368;52.156;20.788;2023-04-05T18:00:49;101084.31;;;2.53;66.00
38612;BME280;24368;52.156;20.788;2023-04-05T18:05:53;101090.68;;;2.48;65.73
38612;BME280;24368;52.156;20.788;2023-04-05T18:10:55;101092.32;;;2.40;64.92
38612;BME280;24368;52.156;20.788;2023-04-05T18:16:03;101092.63;;;2.41;65.31
38612;BME280;24368;52.156;20.788;2023-04-05T18:21:06;101091.16;;;2.42;66.12
38612;BME280;24368;52.156;20.788;2023-04-05T18:26:14;101094.45;;;2.39;65.82
38612;BME280;24368;52.156;20.788;2023-04-05T18:31:18;101099.42;;;2.37;65.70
38612;BME280;24368;52.156;20.788;2023-04-05T18:36:21;101107.09;;;2.37;65.59
38612;BME280;24368;52.156;20.788;2023-04-05T18:41:23;101107.36;;;2.35;65.54
38612;BME280;24368;52.156;20.788;2023-04-05T18:46:25;101109.08;;;2.33;65.02
38612;BME280;24368;52.156;20.788;2023-04-05T18:51:26;101116.00;;;2.30;66.16
38612;BME280;24368;52.156;20.788;2023-04-05T18:56:28;101117.56;;;2.30;66.55
38612;BME280;24368;52.156;20.788;2023-04-05T19:01:29;101115.57;;;2.28;65.93
38612;BME280;24368;52.156;20.788;2023-04-05T19:06:31;101117.08;;;2.29;66.36
38612;BME280;24368;52.156;20.788;2023-04-05T19:11:33;101119.76;;;2.25;66.94
38612;BME280;24368;52.156;20.788;2023-04-05T19:16:34;101121.38;;;2.24;67.25
38612;BME280;24368;52.156;20.788;2023-04-05T19:21:36;101121.84;;;2.21;66.82
38612;BME280;24368;52.156;20.788;2023-04-05T19:26:39;101126.40;;;2.20;67.35
38612;BME280;24368;52.156;20.788;2023-04-05T19:31:41;101124.16;;;2.17;67.48
38612;BME280;24368;52.156;20.788;2023-04-05T19:36:42;101125.64;;;2.12;67.56
38612;BME280;24368;52.156;20.788;2023-04-05T19:41:44;101123.91;;;2.15;67.88
38612;BME280;24368;52.156;20.788;2023-04-05T19:46:46;101129.55;;;2.10;66.72
38612;BME280;24368;52.156;20.788;2023-04-05T19:51:50;101131.95;;;2.08;65.55
38612;BME280;24368;52.156;20.788;2023-04-05T19:56:55;101129.50;;;2.05;65.33
38612;BME280;24368;52.156;20.788;2023-04-05T20:01:57;101131.27;;;2.04;65.27
38612;BME280;24368;52.156;20.788;2023-04-05T20:06:59;101121.42;;;2.03;65.28
38612;BME280;24368;52.156;20.788;2023-04-05T20:12:03;101118.80;;;2.00;65.56
38612;BME280;24368;52.156;20.788;2023-04-05T20:17:08;101114.86;;;1.99;65.48
38612;BME280;24368;52.156;20.788;2023-04-05T20:22:09;101113.30;;;1.95;66.27
38612;BME280;24368;52.156;20.788;2023-04-05T20:27:13;101108.52;;;1.94;65.14
38612;BME280;24368;52.156;20.788;2023-04-05T20:32:15;101107.73;;;1.92;65.22
38612;BME280;24368;52.156;20.788;2023-04-05T20:37:17;101102.99;;;1.90;65.26
38612;BME280;24368;52.156;20.788;2023-04-05T20:42:18;101105.25;;;1.90;65.01
38612;BME280;24368;52.156;20.788;2023-04-05T20:47:19;101101.23;;;1.90;65.16
38612;BME280;24368;52.156;20.788;2023-04-05T20:52:21;101100.31;;;1.88;64.95
38612;BME280;24368;52.156;20.788;2023-04-05T20:57:23;101099.70;;;1.87;64.80
38612;BME280;24368;52.156;20.788;2023-04-05T21:02:24;101100.17;;;1.84;64.40
38612;BME280;24368;52.156;20.788;2023-04-05T21:07:26;101100.39;;;1.83;64.42
38612;BME280;24368;52.156;20.788;2023-04-05T21:12:27;101098.02;;;1.85;64.42
38612;BME280;24368;52.156;20.788;2023-04-05T21:17:28;101098.25;;;1.84;64.00
38612;BME280;24368;52.156;20.788;2023-04-05T21:22:29;101097.65;;;1.79;63.76
38612;BME280;24368;52.156;20.788;2023-04-05T21:27:31;101094.55;;;1.78;64.25
38612;BME280;24368;52.156;20.788;2023-04-05T21:32:33;101097.99;;;1.79;64.22
38612;BME280;24368;52.156;20.788;2023-04-05T21:37:36;101097.14;;;1.79;64.13
38612;BME280;24368;52.156;20.788;2023-04-05T21:42:37;101095.98;;;1.78;64.02
38612;BME280;24368;52.156;20.788;2023-04-05T21:47:39;101093.65;;;1.76;64.06
38612;BME280;24368;52.156;20.788;2023-04-05T21:52:40;101094.41;;;1.75;63.64
38612;BME280;24368;52.156;20.788;2023-04-05T21:57:41;101089.93;;;1.74;64.11
38612;BME280;24368;52.156;20.788;2023-04-05T22:02:42;101086.14;;;1.69;63.55
38612;BME280;24368;52.156;20.788;2023-04-05T22:07:44;101084.90;;;1.70;64.04
38612;BME280;24368;52.156;20.788;2023-04-05T22:12:45;101079.27;;;1.71;65.32
38612;BME280;24368;52.156;20.788;2023-04-05T22:17:46;101077.00;;;1.72;65.47
38612;BME280;24368;52.156;20.788;2023-04-05T22:22:47;101078.04;;;1.72;65.62
38612;BME280;24368;52.156;20.788;2023-04-05T22:27:48;101078.59;;;1.71;66.07
38612;BME280;24368;52.156;20.788;2023-04-05T22:32:50;101074.92;;;1.71;66.43
38612;BME280;24368;52.156;20.788;2023-04-05T22:37:51;101072.99;;;1.68;66.07
38612;BME280;24368;52.156;20.788;2023-04-05T22:42:52;101068.91;;;1.67;65.75
38612;BME280;24368;52.156;20.788;2023-04-05T22:47:54;101066.41;;;1.65;66.70
38612;BME280;24368;52.156;20.788;2023-04-05T22:52:56;101060.35;;;1.61;65.38
38612;BME280;24368;52.156;20.788;2023-04-05T22:57:57;101061.36;;;1.65;65.32
38612;BME280;24368;52.156;20.788;2023-04-05T23:02:58;101059.31;;;1.64;65.70
38612;BME280;24368;52.156;20.788;2023-04-05T23:07:59;101053.34;;;1.59;66.56
38612;BME280;24368;52.156;20.788;2023-04-05T23:13:00;101054.91;;;1.56;67.73
38612;BME280;24368;52.156;20.788;2023-04-05T23:18:01;101051.13;;;1.55;66.93
38612;BME280;24368;52.156;20.788;2023-04-05T23:23:02;101053.35;;;1.55;66.26
38612;BME280;24368;52.156;20.788;2023-04-05T23:28:04;101049.52;;;1.56;66.92
38612;BME280;24368;52.156;20.788;2023-04-05T23:33:05;101044.75;;;1.54;66.57
38612;BME280;24368;52.156;20.788;2023-04-05T23:38:06;101044.09;;;1.53;66.15
38612;BME280;24368;52.156;20.788;2023-04-05T23:43:08;101051.67;;;1.54;67.10
38612;BME280;24368;52.156;20.788;2023-04-05T23:48:09;101045.95;;;1.54;67.54
38612;BME280;24368;52.156;20.788;2023-04-05T23:53:13;101038.56;;;1.53;67.18
38612;BME280;24368;52.156;20.788;2023-04-05T23:58:14;101039.05;;;1.50;66.38
